createdAt,value
2019-03-30T00:01:09.697Z,3.63
2019-03-30T00:05:29.063Z,3.37
2019-03-30T00:09:49.157Z,2.70
2019-03-30T00:14:08.497Z,2.77
2019-03-30T00:18:27.651Z,2.83
2019-03-30T00:22:48.584Z,2.80
2019-03-30T00:27:07.954Z,3.20
2019-03-30T00:31:27.174Z,3.27
2019-03-30T00:35:52.057Z,3.07
2019-03-30T00:40:16.950Z,2.97
2019-03-30T00:44:38.020Z,3.17
2019-03-30T00:49:00.423Z,4.70
2019-03-30T00:53:20.184Z,3.43
2019-03-30T00:57:39.545Z,3.30
2019-03-30T01:01:58.734Z,2.97
2019-03-30T01:06:18.881Z,2.77
2019-03-30T01:10:38.221Z,2.90
2019-03-30T01:14:57.267Z,2.83
2019-03-30T01:19:16.383Z,3.00
2019-03-30T01:23:35.337Z,3.07
2019-03-30T01:27:54.746Z,2.80
2019-03-30T01:32:13.869Z,2.90
2019-03-30T01:36:33.138Z,3.27
2019-03-30T01:40:53.493Z,2.93
2019-03-30T01:45:12.715Z,3.17
2019-03-30T01:49:32.084Z,2.57
2019-03-30T01:53:51.531Z,2.93
2019-03-30T01:58:11.232Z,3.70
2019-03-30T02:02:30.481Z,3.80
2019-03-30T02:06:50.168Z,3.93
2019-03-30T02:11:09.234Z,3.47
2019-03-30T02:15:28.310Z,3.03
2019-03-30T02:19:48.506Z,3.17
2019-03-30T02:24:07.557Z,3.60
2019-03-30T02:28:26.519Z,2.73
2019-03-30T02:32:45.496Z,2.50
2019-03-30T02:37:04.527Z,2.63
2019-03-30T02:41:24.862Z,3.67
2019-03-30T02:45:43.866Z,3.20
2019-03-30T02:50:02.881Z,2.80
2019-03-30T02:54:21.851Z,2.60
2019-03-30T02:58:40.854Z,2.60
2019-03-30T03:02:59.836Z,3.03
2019-03-30T03:07:19.281Z,3.37
2019-03-30T03:11:38.855Z,3.00
2019-03-30T03:15:58.257Z,3.23
2019-03-30T03:20:17.519Z,2.83
2019-03-30T03:24:36.656Z,2.90
2019-03-30T03:28:55.921Z,3.13
2019-03-30T03:33:14.961Z,3.10
2019-03-30T03:37:44.628Z,2.97
2019-03-30T03:41:55.123Z,3.07
2019-03-30T03:46:13.999Z,2.90
2019-03-30T03:50:44.080Z,2.93
2019-03-30T03:55:03.283Z,2.90
2019-03-30T03:59:26.091Z,2.83
2019-03-30T04:03:47.429Z,2.90
2019-03-30T04:08:11.945Z,3.30
2019-03-30T04:12:35.582Z,3.00
2019-03-30T04:16:54.559Z,3.30
2019-03-30T04:21:13.857Z,2.80
2019-03-30T04:25:33.619Z,2.83
2019-03-30T04:29:53.108Z,2.57
2019-03-30T04:34:12.084Z,3.80
2019-03-30T04:38:31.491Z,3.13
2019-03-30T04:42:50.468Z,2.77
2019-03-30T04:47:09.802Z,2.90
2019-03-30T04:51:28.749Z,2.73
2019-03-30T04:55:49.522Z,2.73
2019-03-30T05:00:09.205Z,2.70
2019-03-30T05:04:28.169Z,3.30
2019-03-30T05:08:47.566Z,3.27
2019-03-30T05:13:06.735Z,2.73
2019-03-30T05:17:26.377Z,2.60
2019-03-30T05:21:45.706Z,2.80
2019-03-30T05:26:04.738Z,2.80
2019-03-30T05:30:23.781Z,2.93
2019-03-30T05:34:42.822Z,2.70
2019-03-30T05:39:01.822Z,2.77
2019-03-30T05:43:21.486Z,2.73
2019-03-30T05:47:41.384Z,3.00
2019-03-30T05:52:00.708Z,2.63
2019-03-30T05:56:19.723Z,3.07
2019-03-30T06:00:38.704Z,2.83
2019-03-30T06:04:58.912Z,3.00
2019-03-30T06:09:17.961Z,3.23
2019-03-30T06:13:36.971Z,2.60
2019-03-30T06:17:56.960Z,2.87
2019-03-30T06:22:16.226Z,2.83
2019-03-30T06:26:36.232Z,2.60
2019-03-30T06:30:55.267Z,2.97
2019-03-30T06:35:16.332Z,3.10
2019-03-30T06:39:37.150Z,2.90
2019-03-30T06:43:56.264Z,3.10
2019-03-30T06:48:15.454Z,3.53
2019-03-30T06:52:34.814Z,4.10
2019-03-30T06:56:53.698Z,4.13
2019-03-30T07:01:13.061Z,4.00
2019-03-30T07:05:42.078Z,3.90
2019-03-30T07:10:07.425Z,4.40
2019-03-30T07:14:35.833Z,4.70
2019-03-30T07:19:03.046Z,4.43
2019-03-30T07:23:22.071Z,4.70
2019-03-30T07:27:42.784Z,4.90
2019-03-30T07:32:02.138Z,5.47
2019-03-30T07:36:21.342Z,4.73
2019-03-30T07:40:40.752Z,4.87
2019-03-30T07:45:01.201Z,5.80
2019-03-30T07:49:21.457Z,5.20
2019-03-30T07:53:44.700Z,5.60
2019-03-30T07:58:01.905Z,5.17
2019-03-30T08:02:21.316Z,6.03
2019-03-30T08:06:46.891Z,5.93
2019-03-30T08:11:14.463Z,5.93
2019-03-30T08:15:35.904Z,6.50
2019-03-30T08:19:55.031Z,6.63
2019-03-30T08:24:15.304Z,5.70
2019-03-30T08:28:34.757Z,5.80
2019-03-30T08:32:54.391Z,6.50
2019-03-30T08:37:13.941Z,6.50
2019-03-30T08:41:33.012Z,6.40
2019-03-30T08:45:51.973Z,6.33
2019-03-30T08:50:11.433Z,7.10
2019-03-30T08:54:30.361Z,6.83
2019-03-30T08:58:49.526Z,7.23
2019-03-30T09:03:09.151Z,6.40
2019-03-30T09:07:28.056Z,6.20
2019-03-30T09:11:47.109Z,6.07
2019-03-30T09:16:08.387Z,5.80
2019-03-30T09:20:32.988Z,5.90
2019-03-30T09:24:53.326Z,5.27
2019-03-30T09:29:12.400Z,5.20
2019-03-30T09:33:31.372Z,5.50
2019-03-30T09:37:50.411Z,5.27
2019-03-30T09:42:09.535Z,5.73
2019-03-30T09:46:34.546Z,5.90
2019-03-30T09:50:54.841Z,5.73
2019-03-30T09:55:14.656Z,5.80
2019-03-30T09:59:33.685Z,5.53
2019-03-30T10:03:57.246Z,5.40
2019-03-30T10:08:27.242Z,5.87
2019-03-30T10:12:46.738Z,5.63
2019-03-30T10:17:06.508Z,5.60
2019-03-30T10:21:25.991Z,5.10
2019-03-30T10:25:45.011Z,5.00
2019-03-30T10:30:04.377Z,5.63
2019-03-30T10:34:23.499Z,5.73
2019-03-30T10:38:42.673Z,5.40
2019-03-30T10:43:01.686Z,4.70
2019-03-30T10:47:21.133Z,4.40
2019-03-30T10:51:41.571Z,4.27
2019-03-30T10:56:00.685Z,4.83
2019-03-30T11:00:51.236Z,4.30
2019-03-30T11:05:12.184Z,4.10
2019-03-30T11:09:31.758Z,4.10
2019-03-30T11:13:50.701Z,4.17
2019-03-30T11:18:10.124Z,7.37
2019-03-30T11:22:29.632Z,7.50
2019-03-30T11:26:48.733Z,7.50
2019-03-30T11:31:08.729Z,6.90
2019-03-30T11:35:28.150Z,6.70
2019-03-30T11:39:47.217Z,6.70
2019-03-30T11:44:06.215Z,6.00
2019-03-30T11:48:25.484Z,6.23
2019-03-30T11:52:44.660Z,6.67
2019-03-30T11:57:03.947Z,5.60
2019-03-30T12:01:24.114Z,5.50
2019-03-30T12:05:43.078Z,5.67
2019-03-30T12:10:02.393Z,6.43
2019-03-30T12:14:22.077Z,6.17
2019-03-30T12:18:41.149Z,6.20
2019-03-30T12:23:01.019Z,6.60
2019-03-30T12:27:21.054Z,5.50
2019-03-30T12:31:40.033Z,6.30
2019-03-30T12:35:59.078Z,6.90
2019-03-30T12:40:19.461Z,6.80
2019-03-30T12:44:38.611Z,5.30
2019-03-30T12:48:57.601Z,5.73
2019-03-30T12:53:16.539Z,5.80
2019-03-30T12:57:35.943Z,5.67
2019-03-30T13:01:55.793Z,5.00
2019-03-30T13:06:16.334Z,5.30
2019-03-30T13:10:35.246Z,4.70
2019-03-30T13:14:55.419Z,6.00
2019-03-30T13:19:14.772Z,5.63
2019-03-30T13:23:33.825Z,6.80
2019-03-30T13:27:53.737Z,6.03
2019-03-30T13:32:13.110Z,6.27
2019-03-30T13:36:42.548Z,5.83
2019-03-30T13:41:01.616Z,5.40
2019-03-30T13:45:20.462Z,7.37
2019-03-30T13:49:40.553Z,7.07
2019-03-30T13:53:59.584Z,6.10
2019-03-30T13:58:20.487Z,5.70
2019-03-30T14:02:43.837Z,6.90
2019-03-30T14:07:09.050Z,6.20
2019-03-30T14:11:36.882Z,6.30
2019-03-30T14:16:07.673Z,6.90
2019-03-30T14:20:29.237Z,6.10
2019-03-30T14:24:54.052Z,6.20
2019-03-30T14:29:20.756Z,6.13
2019-03-30T14:33:41.830Z,7.00
2019-03-30T14:38:01.185Z,5.43
2019-03-30T14:42:21.533Z,5.47
2019-03-30T14:46:40.474Z,5.23
2019-03-30T14:50:59.768Z,5.30
2019-03-30T14:55:19.539Z,5.90
2019-03-30T14:59:38.411Z,5.80
2019-03-30T15:03:57.927Z,5.63
2019-03-30T15:08:17.705Z,5.10
2019-03-30T15:12:37.377Z,5.10
2019-03-30T15:16:58.764Z,5.40
2019-03-30T15:21:17.708Z,5.13
2019-03-30T15:25:37.677Z,6.17
2019-03-30T15:29:56.535Z,5.50
2019-03-30T15:34:15.535Z,6.13
2019-03-30T15:38:35.880Z,5.27
2019-03-30T15:42:55.461Z,5.10
2019-03-30T15:47:14.567Z,6.40
2019-03-30T15:51:37.385Z,5.60
2019-03-30T15:55:54.772Z,6.33
2019-03-30T16:00:17.802Z,5.20
2019-03-30T16:04:37.105Z,5.33
2019-03-30T16:08:56.387Z,6.10
2019-03-30T16:13:15.425Z,5.63
2019-03-30T16:17:34.890Z,5.70
2019-03-30T16:21:55.395Z,5.40
2019-03-30T16:26:14.287Z,7.00
2019-03-30T16:30:33.761Z,5.83
2019-03-30T16:34:53.701Z,6.60
2019-03-30T16:39:12.871Z,6.30
2019-03-30T16:43:31.873Z,5.53
2019-03-30T16:47:50.818Z,5.73
2019-03-30T16:52:11.015Z,7.20
2019-03-30T16:56:30.140Z,7.27
2019-03-30T17:00:56.190Z,7.30
2019-03-30T17:05:11.190Z,6.33
2019-03-30T17:09:30.658Z,5.20
2019-03-30T17:13:50.394Z,5.60
2019-03-30T17:18:09.366Z,5.33
2019-03-30T17:22:28.371Z,4.93
2019-03-30T17:26:47.727Z,4.80
2019-03-30T17:31:08.027Z,3.20
2019-03-30T17:35:27.522Z,3.37
2019-03-30T17:39:46.677Z,2.87
2019-03-30T17:44:05.970Z,3.47
2019-03-30T17:48:25.622Z,2.70
2019-03-30T17:52:44.799Z,2.90
2019-03-30T17:57:04.188Z,3.00
2019-03-30T18:01:23.249Z,3.83
2019-03-30T18:05:43.393Z,7.07
2019-03-30T18:10:04.376Z,7.63
2019-03-30T18:14:23.338Z,6.63
2019-03-30T18:18:43.527Z,6.90
2019-03-30T18:23:02.550Z,5.07
2019-03-30T18:27:23.886Z,6.37
2019-03-30T18:31:43.029Z,6.97
2019-03-30T18:36:02.604Z,5.90
2019-03-30T18:40:31.404Z,7.23
2019-03-30T18:44:54.189Z,5.60
2019-03-30T18:49:13.486Z,5.87
2019-03-30T18:53:33.206Z,5.17
2019-03-30T18:57:53.730Z,6.20
2019-03-30T19:02:12.781Z,6.17
2019-03-30T19:06:33.581Z,6.07
2019-03-30T19:10:53.581Z,6.33
2019-03-30T19:15:12.682Z,6.60
2019-03-30T19:19:31.793Z,7.20
2019-03-30T19:23:50.793Z,3.80
2019-03-30T19:28:11.299Z,6.60
2019-03-30T19:32:31.081Z,5.53
2019-03-30T19:36:51.030Z,5.20
2019-03-30T19:41:10.366Z,6.97
2019-03-30T19:45:30.904Z,7.37
2019-03-30T19:49:50.250Z,3.60
2019-03-30T19:54:10.093Z,5.43
2019-03-30T19:58:29.161Z,5.70
2019-03-30T20:02:50.418Z,4.67
2019-03-30T20:07:09.424Z,4.53
2019-03-30T20:11:29.039Z,6.67
2019-03-30T20:15:48.064Z,5.77
2019-03-30T20:20:09.521Z,5.80
2019-03-30T20:24:29.404Z,6.00
2019-03-30T20:28:49.195Z,6.87
2019-03-30T20:33:08.123Z,6.80
2019-03-30T20:37:28.690Z,4.77
2019-03-30T20:41:48.026Z,3.63
2019-03-30T20:46:07.157Z,3.40
2019-03-30T20:50:26.895Z,3.40
2019-03-30T20:54:49.387Z,6.33
2019-03-30T20:59:08.526Z,5.27
2019-03-30T21:03:27.588Z,3.80
2019-03-30T21:07:47.273Z,3.90
2019-03-30T21:12:08.821Z,3.30
2019-03-30T21:16:27.874Z,4.30
2019-03-30T21:20:48.835Z,4.50
2019-03-30T21:25:09.145Z,4.57
2019-03-30T21:29:30.001Z,5.37
2019-03-30T21:33:49.958Z,5.90
2019-03-30T21:38:12.011Z,6.10
2019-03-30T21:42:31.724Z,4.87
2019-03-30T21:46:50.917Z,3.97
2019-03-30T21:51:09.964Z,3.23
2019-03-30T21:55:29.440Z,2.93
2019-03-30T21:59:49.109Z,2.50
2019-03-30T22:04:07.973Z,2.50
2019-03-30T22:08:27.228Z,3.47
2019-03-30T22:12:47.578Z,2.70
2019-03-30T22:17:07.265Z,3.30
2019-03-30T22:21:26.431Z,2.57
2019-03-30T22:25:45.390Z,2.67
2019-03-30T22:30:04.852Z,3.17
2019-03-30T22:34:24.394Z,2.70
2019-03-30T22:38:43.405Z,3.33
2019-03-30T22:43:02.461Z,2.80
2019-03-30T22:47:22.062Z,2.30
2019-03-30T22:51:41.034Z,2.80
2019-03-30T22:56:00.471Z,2.53
2019-03-30T23:00:38.968Z,2.87
2019-03-30T23:05:00.154Z,2.50
2019-03-30T23:09:21.394Z,2.87
2019-03-30T23:13:40.283Z,2.60
2019-03-30T23:17:59.413Z,2.37
2019-03-30T23:22:18.368Z,2.70
2019-03-30T23:26:37.851Z,2.30
2019-03-30T23:30:56.663Z,3.03
2019-03-30T23:35:15.661Z,2.60
2019-03-30T23:39:34.714Z,2.80
2019-03-30T23:43:53.794Z,2.40
2019-03-30T23:48:12.745Z,3.17
2019-03-30T23:52:31.718Z,2.40
2019-03-30T23:56:51.076Z,2.17
